createdAt,value
2019-06-27T07:53:42.846Z,7.77
2019-06-27T07:56:11.426Z,7.77
2019-06-27T07:58:39.930Z,7.80
2019-06-27T08:01:08.423Z,8.33
2019-06-27T08:03:36.899Z,7.90
2019-06-27T08:06:05.396Z,8.77
2019-06-27T08:08:33.854Z,8.20
2019-06-27T08:11:02.430Z,7.90
2019-06-27T08:13:30.927Z,7.70
2019-06-27T08:15:59.398Z,7.30
2019-06-27T08:18:28.493Z,7.47
2019-06-27T08:20:57.069Z,7.70
2019-06-27T08:23:40.609Z,7.90
2019-06-27T08:25:55.932Z,8.20
2019-06-27T08:28:24.412Z,7.40
2019-06-27T08:30:52.874Z,7.20
2019-06-27T08:33:21.355Z,8.07
2019-06-27T08:35:49.918Z,8.07
2019-06-27T08:38:18.330Z,7.93
2019-06-27T08:40:46.957Z,7.40
2019-06-27T08:43:15.433Z,7.10
2019-06-27T08:45:44.119Z,7.97
2019-06-27T08:48:12.620Z,7.53
2019-06-27T08:50:41.201Z,7.73
2019-06-27T08:53:09.591Z,7.60
2019-06-27T08:55:37.954Z,8.20
2019-06-27T08:58:06.532Z,7.63
2019-06-27T09:00:35.199Z,7.53
2019-06-27T09:03:04.590Z,7.57
2019-06-27T09:05:33.874Z,9.30
2019-06-27T09:08:04.706Z,6.87
2019-06-27T09:10:33.274Z,6.87
2019-06-27T09:13:01.862Z,8.97
2019-06-27T09:15:30.543Z,8.30
2019-06-27T09:17:59.112Z,7.50
2019-06-27T09:20:27.477Z,8.13
2019-06-27T09:22:56.065Z,7.70
2019-06-27T09:25:24.713Z,8.83
2019-06-27T09:27:53.275Z,9.13
2019-06-27T09:30:22.056Z,8.77
2019-06-27T09:32:50.552Z,7.00
2019-06-27T09:35:19.033Z,7.60
2019-06-27T09:37:47.560Z,6.90
2019-06-27T09:40:16.303Z,6.90
2019-06-27T09:42:44.777Z,7.30
2019-06-27T09:45:13.980Z,6.40
2019-06-27T09:47:42.549Z,7.50
2019-06-27T09:50:11.043Z,7.20
2019-06-27T09:52:39.643Z,6.90
2019-06-27T09:55:09.125Z,7.03
2019-06-27T09:57:37.641Z,7.10
2019-06-27T10:00:06.367Z,7.30
2019-06-27T10:02:41.444Z,6.70
2019-06-27T10:05:05.605Z,7.00
2019-06-27T10:07:34.074Z,7.00
2019-06-27T10:10:03.222Z,6.60
2019-06-27T10:12:41.653Z,7.33
2019-06-27T10:15:02.290Z,6.97
2019-06-27T10:17:31.053Z,7.50
2019-06-27T10:19:59.641Z,6.93
2019-06-27T10:22:28.213Z,7.47
2019-06-27T10:24:56.792Z,6.87
2019-06-27T10:27:25.455Z,7.00
2019-06-27T10:29:53.929Z,6.20
2019-06-27T10:32:22.306Z,5.93
2019-06-27T10:34:50.787Z,6.40
2019-06-27T10:37:19.268Z,6.23
2019-06-27T10:39:47.691Z,5.97
2019-06-27T10:42:16.202Z,6.40
2019-06-27T10:44:44.789Z,6.63
2019-06-27T10:47:13.269Z,6.23
2019-06-27T10:49:41.683Z,6.23
2019-06-27T10:52:10.270Z,6.10
2019-06-27T10:54:38.778Z,6.53
2019-06-27T10:57:07.339Z,6.20
2019-06-27T10:59:35.797Z,5.00
2019-06-27T11:02:05.020Z,5.77
2019-06-27T11:04:33.495Z,5.73
2019-06-27T11:07:01.897Z,5.20
2019-06-27T11:09:30.526Z,5.30
2019-06-27T11:11:58.955Z,5.10
2019-06-27T11:14:27.416Z,5.17
2019-06-27T11:16:56.037Z,5.93
2019-06-27T11:19:24.482Z,5.97
2019-06-27T11:21:53.150Z,7.47
2019-06-27T11:24:21.644Z,6.97
2019-06-27T11:26:50.025Z,6.27
2019-06-27T11:29:18.570Z,6.00
2019-06-27T11:31:47.258Z,6.07
2019-06-27T11:34:19.083Z,5.43
2019-06-27T11:36:46.722Z,5.60
2019-06-27T11:39:15.328Z,6.10
2019-06-27T11:41:43.836Z,5.23
2019-06-27T11:44:12.418Z,5.77
2019-06-27T11:46:40.900Z,5.57
2019-06-27T11:49:09.364Z,5.30
2019-06-27T11:51:37.869Z,5.23
2019-06-27T11:54:06.454Z,5.87
2019-06-27T11:56:35.057Z,5.23
2019-06-27T11:59:03.620Z,5.33
2019-06-27T12:01:32.201Z,5.23
2019-06-27T12:04:00.653Z,4.90
2019-06-27T12:06:29.166Z,5.37
2019-06-27T12:08:57.654Z,5.03
2019-06-27T12:11:26.245Z,5.87
2019-06-27T12:13:54.683Z,5.40
2019-06-27T12:16:23.136Z,5.20
2019-06-27T12:18:51.630Z,5.40
2019-06-27T12:21:20.177Z,5.27
2019-06-27T12:23:48.666Z,5.63
2019-06-27T12:26:17.242Z,5.47
2019-06-27T12:28:46.125Z,4.63
2019-06-27T12:31:20.344Z,4.90
2019-06-27T12:33:45.077Z,5.70
2019-06-27T12:36:13.550Z,5.57
2019-06-27T12:38:42.043Z,5.40
2019-06-27T12:41:10.506Z,5.83
2019-06-27T12:43:38.980Z,5.10
2019-06-27T12:46:07.604Z,5.87
2019-06-27T12:48:37.193Z,5.80
2019-06-27T12:51:05.742Z,5.53
2019-06-27T12:53:34.435Z,5.43
2019-06-27T12:56:02.909Z,5.07
2019-06-27T12:58:31.421Z,5.30
2019-06-27T13:00:59.887Z,5.50
2019-06-27T13:03:28.481Z,6.00
2019-06-27T13:05:57.057Z,5.73
2019-06-27T13:08:25.640Z,7.23
2019-06-27T13:10:54.008Z,6.23
2019-06-27T13:13:22.490Z,5.53
2019-06-27T13:15:51.083Z,5.83
2019-06-27T13:18:19.673Z,6.27
2019-06-27T13:20:57.938Z,6.40
2019-06-27T13:23:18.693Z,6.87
2019-06-27T13:25:47.331Z,7.20
2019-06-27T13:28:15.852Z,8.20
2019-06-27T13:30:44.354Z,6.57
2019-06-27T13:33:12.842Z,8.03
2019-06-27T13:35:41.616Z,6.20
2019-06-27T13:38:10.284Z,6.20
2019-06-27T13:40:38.657Z,6.20
2019-06-27T13:43:07.318Z,7.13
2019-06-27T13:45:35.765Z,6.30
2019-06-27T13:48:04.253Z,5.80
2019-06-27T13:50:33.365Z,6.77
2019-06-27T13:53:01.978Z,6.90
2019-06-27T13:55:30.781Z,6.67
2019-06-27T13:57:59.274Z,7.17
2019-06-27T14:00:36.881Z,6.77
2019-06-27T14:03:05.846Z,6.97
2019-06-27T14:05:34.441Z,7.10
2019-06-27T14:08:03.159Z,6.33
2019-06-27T14:10:31.725Z,6.90
2019-06-27T14:13:00.414Z,6.53
2019-06-27T14:15:29.098Z,6.60
2019-06-27T14:17:57.689Z,7.07
2019-06-27T14:20:26.155Z,6.60
2019-06-27T14:22:54.936Z,7.33
2019-06-27T14:25:23.529Z,7.37
2019-06-27T14:27:52.187Z,7.27
2019-06-27T14:30:20.791Z,7.97
2019-06-27T14:32:53.153Z,6.70
2019-06-27T14:35:20.042Z,7.40
2019-06-27T14:37:48.741Z,7.20
2019-06-27T14:40:17.801Z,7.30
2019-06-27T14:42:46.372Z,7.33
2019-06-27T14:45:14.963Z,7.03
2019-06-27T14:47:43.652Z,7.20
2019-06-27T14:50:12.476Z,7.20
2019-06-27T14:52:41.033Z,7.73
2019-06-27T14:55:10.013Z,7.07
2019-06-27T14:57:38.822Z,7.03
2019-06-27T15:00:09.731Z,6.90
2019-06-27T15:02:38.173Z,6.50
2019-06-27T15:05:08.063Z,6.13
2019-06-27T15:07:36.550Z,6.60
2019-06-27T15:10:06.364Z,7.03
2019-06-27T15:12:35.919Z,6.87
2019-06-27T15:15:05.795Z,6.70
2019-06-27T15:17:34.261Z,9.87
2019-06-27T15:20:02.949Z,8.90
2019-06-27T15:22:31.460Z,7.10
2019-06-27T15:25:00.028Z,7.40
2019-06-27T15:27:28.769Z,8.00
2019-06-27T15:29:57.763Z,8.20
2019-06-27T15:32:26.394Z,6.90
2019-06-27T15:34:55.072Z,10.93
2019-06-27T15:37:23.667Z,14.33
2019-06-27T15:39:52.262Z,10.70
2019-06-27T15:42:20.813Z,11.33
2019-06-27T15:44:49.444Z,7.27
2019-06-27T15:47:18.478Z,6.57
2019-06-27T15:49:47.432Z,8.17
2019-06-27T15:52:15.939Z,6.53
2019-06-27T15:54:44.548Z,6.10
2019-06-27T15:57:13.172Z,6.40
2019-06-27T15:59:41.555Z,5.50
2019-06-27T16:02:10.127Z,6.90
2019-06-27T16:04:38.615Z,6.63
2019-06-27T16:07:07.261Z,7.03
2019-06-27T16:09:35.753Z,6.33
2019-06-27T16:12:04.231Z,6.77
2019-06-27T16:14:32.588Z,5.73
2019-06-27T16:17:01.048Z,6.37
2019-06-27T16:19:29.622Z,6.33
2019-06-27T16:21:58.104Z,5.57
2019-06-27T16:24:26.694Z,5.80
2019-06-27T16:26:55.258Z,5.50
2019-06-27T16:29:23.834Z,6.07
2019-06-27T16:31:52.393Z,6.60
2019-06-27T16:34:20.965Z,6.20
2019-06-27T16:36:49.444Z,6.20
2019-06-27T16:39:17.957Z,5.70
2019-06-27T16:41:46.641Z,6.60
2019-06-27T16:44:15.231Z,6.70
2019-06-27T16:46:44.116Z,6.03
2019-06-27T16:49:12.618Z,6.20
2019-06-27T16:51:41.091Z,6.57
2019-06-27T16:54:10.065Z,5.83
2019-06-27T16:56:38.656Z,6.20
2019-06-27T16:59:07.149Z,6.70
2019-06-27T17:01:35.814Z,6.73
2019-06-27T17:04:04.377Z,6.80
2019-06-27T17:06:42.256Z,6.43
2019-06-27T17:09:04.298Z,6.50
2019-06-27T17:11:32.977Z,6.50
2019-06-27T17:14:01.636Z,6.87
2019-06-27T17:16:30.122Z,6.57
2019-06-27T17:18:58.604Z,6.67
2019-06-27T17:21:27.281Z,6.47
2019-06-27T17:23:55.963Z,6.73
2019-06-27T17:26:24.537Z,6.90
2019-06-27T17:28:52.997Z,6.70
2019-06-27T17:31:21.575Z,6.73
2019-06-27T17:33:49.946Z,6.73
2019-06-27T17:36:18.413Z,6.43
2019-06-27T17:38:46.877Z,6.30
2019-06-27T17:41:15.338Z,6.50
2019-06-27T17:43:43.805Z,6.67
2019-06-27T17:46:12.406Z,6.90
2019-06-27T17:48:40.788Z,6.40
2019-06-27T17:51:09.175Z,6.37
2019-06-27T17:53:37.638Z,6.27
2019-06-27T17:56:06.009Z,6.30
2019-06-27T17:58:34.589Z,6.33
2019-06-27T18:01:03.284Z,6.17
2019-06-27T18:03:31.813Z,5.87
2019-06-27T18:06:00.490Z,6.33
2019-06-27T18:08:29.168Z,6.53
2019-06-27T18:10:57.673Z,6.53
2019-06-27T18:13:26.454Z,6.40
2019-06-27T18:15:55.038Z,7.17
2019-06-27T18:18:23.432Z,6.77
2019-06-27T18:20:52.008Z,7.47
2019-06-27T18:23:20.614Z,6.90
2019-06-27T18:25:49.306Z,7.00
2019-06-27T18:28:17.989Z,7.30
2019-06-27T18:30:46.682Z,7.43
2019-06-27T18:33:15.263Z,7.63
2019-06-27T18:35:43.652Z,7.43
2019-06-27T18:38:12.305Z,7.33
2019-06-27T18:40:40.870Z,8.53
2019-06-27T18:43:09.446Z,8.70
2019-06-27T18:45:38.022Z,9.07
2019-06-27T18:48:12.383Z,8.70
2019-06-27T18:50:45.743Z,9.23
2019-06-27T18:53:14.329Z,8.87
2019-06-27T18:55:42.749Z,8.63
2019-06-27T18:58:11.348Z,8.07
2019-06-27T19:00:39.913Z,7.97
2019-06-27T19:03:08.405Z,9.40
2019-06-27T19:05:36.803Z,10.27
2019-06-27T19:08:05.275Z,9.47
2019-06-27T19:10:34.045Z,10.50
2019-06-27T19:13:02.529Z,9.83
2019-06-27T19:15:31.105Z,10.20
2019-06-27T19:17:59.584Z,10.27
2019-06-27T19:20:37.022Z,10.40
2019-06-27T19:23:25.061Z,10.10
2019-06-27T19:25:56.016Z,11.20
2019-06-27T19:28:24.391Z,10.80
2019-06-27T19:30:52.967Z,10.27
2019-06-27T19:33:21.456Z,10.67
2019-06-27T19:35:49.939Z,10.07
2019-06-27T19:38:18.436Z,10.27
2019-06-27T19:40:46.992Z,10.27
2019-06-27T19:43:27.020Z,9.27
2019-06-27T19:45:45.867Z,9.57
2019-06-27T19:48:14.273Z,10.07
2019-06-27T19:50:42.958Z,8.50
2019-06-27T19:53:11.845Z,8.40
2019-06-27T19:55:40.425Z,8.50
2019-06-27T19:58:09.147Z,7.73
2019-06-27T20:00:37.711Z,9.00
2019-06-27T20:03:06.098Z,7.73
2019-06-27T20:05:34.802Z,7.83
2019-06-27T20:08:17.767Z,7.73
2019-06-27T20:10:33.676Z,8.10
2019-06-27T20:13:02.292Z,7.63
2019-06-27T20:15:30.887Z,7.80
2019-06-27T20:18:00.594Z,8.30
2019-06-27T20:20:29.177Z,7.70
2019-06-27T20:22:57.750Z,8.30
2019-06-27T20:25:26.230Z,8.10
2019-06-27T20:27:54.733Z,8.13
2019-06-27T20:30:23.214Z,8.10
2019-06-27T20:32:51.694Z,7.63
2019-06-27T20:35:20.363Z,8.03
2019-06-27T20:37:49.345Z,7.97
2019-06-27T20:40:18.651Z,7.57
2019-06-27T20:43:06.791Z,8.37
2019-06-27T20:45:35.374Z,8.33
2019-06-27T20:48:04.018Z,7.70
2019-06-27T20:50:32.465Z,8.33
2019-06-27T20:53:01.073Z,8.37
2019-06-27T20:55:29.673Z,8.30
2019-06-27T20:57:58.259Z,8.33
2019-06-27T21:00:26.930Z,8.57
2019-06-27T21:02:55.627Z,8.17
2019-06-27T21:05:24.092Z,8.87
2019-06-27T21:07:52.577Z,8.00
2019-06-27T21:10:21.145Z,8.60
2019-06-27T21:12:49.707Z,8.47
2019-06-27T21:15:18.595Z,9.40
2019-06-27T21:17:47.085Z,8.60
2019-06-27T21:20:16.056Z,8.40
2019-06-27T21:22:46.091Z,8.40
2019-06-27T21:25:16.546Z,7.80
2019-06-27T21:27:45.523Z,8.13
2019-06-27T21:30:16.122Z,8.00
2019-06-27T21:32:48.122Z,8.37
2019-06-27T21:35:14.868Z,8.93
2019-06-27T21:37:43.347Z,8.67
2019-06-27T21:40:12.134Z,8.40
2019-06-27T21:42:40.722Z,8.10
2019-06-27T21:45:09.697Z,8.57
2019-06-27T21:47:38.273Z,8.00
2019-06-27T21:50:07.055Z,7.73
2019-06-27T21:52:35.525Z,9.23
2019-06-27T21:55:04.145Z,8.27
2019-06-27T21:57:32.662Z,8.20
2019-06-27T22:00:01.285Z,8.23
2019-06-27T22:02:29.853Z,8.67
2019-06-27T22:04:58.317Z,8.23
2019-06-27T22:07:26.889Z,8.37
2019-06-27T22:09:55.446Z,8.70
2019-06-27T22:12:24.018Z,8.87
2019-06-27T22:14:52.503Z,8.97
2019-06-27T22:17:21.073Z,8.47
2019-06-27T22:19:49.557Z,8.23
2019-06-27T22:22:18.019Z,8.20
2019-06-27T22:24:46.481Z,7.63
2019-06-27T22:27:14.862Z,8.57
2019-06-27T22:29:43.325Z,7.93
2019-06-27T22:32:11.981Z,8.57
2019-06-27T22:34:40.646Z,8.23
2019-06-27T22:37:09.310Z,8.60
2019-06-27T22:39:55.907Z,8.47
2019-06-27T22:42:42.491Z,8.63
2019-06-27T22:45:29.729Z,8.27
2019-06-27T22:48:13.399Z,8.13
2019-06-27T22:51:01.912Z,8.50
2019-06-27T22:53:35.041Z,8.00
2019-06-27T22:56:03.692Z,8.90
2019-06-27T22:58:32.067Z,8.70
2019-06-27T23:01:01.316Z,8.23
2019-06-27T23:03:29.903Z,8.73
2019-06-27T23:05:58.362Z,8.77
2019-06-27T23:08:26.737Z,8.63
2019-06-27T23:10:55.198Z,9.40
2019-06-27T23:13:23.782Z,9.07
2019-06-27T23:15:52.252Z,9.33
2019-06-27T23:18:20.728Z,9.10
2019-06-27T23:20:49.205Z,8.80
2019-06-27T23:23:17.674Z,8.30
2019-06-27T23:25:46.047Z,8.70
2019-06-27T23:28:14.643Z,9.47
2019-06-27T23:30:43.908Z,9.10
2019-06-27T23:33:12.524Z,8.57
2019-06-27T23:35:41.061Z,9.23
2019-06-27T23:38:09.537Z,9.50
2019-06-27T23:40:38.006Z,8.90
2019-06-27T23:43:06.479Z,9.23
2019-06-27T23:45:35.081Z,9.30
2019-06-27T23:48:03.555Z,10.03
2019-06-27T23:50:32.117Z,9.57
2019-06-27T23:53:00.495Z,9.70
2019-06-27T23:55:28.944Z,9.17
2019-06-27T23:57:57.339Z,8.90
